sensor_id;sensor_type;location;lat;lon;timestamp;P1;durP1;ratioP1;P2;durP2;ratioP2
53765;SDS011;39682;51.490;7.310;2023-03-05T00:01:50;6.82;;;1.00;;
53765;SDS011;39682;51.490;7.310;2023-03-05T00:04:16;15.57;;;1.92;;
53765;SDS011;39682;51.490;7.310;2023-03-05T00:06:42;7.75;;;2.13;;
53765;SDS011;39682;51.490;7.310;2023-03-05T00:09:08;6.20;;;2.00;;
53765;SDS011;39682;51.490;7.310;2023-03-05T00:11:34;8.85;;;1.67;;
53765;SDS011;39682;51.490;7.310;2023-03-05T00:14:01;5.20;;;1.17;;
53765;SDS011;39682;51.490;7.310;2023-03-05T00:16:28;10.10;;;1.83;;
53765;SDS011;39682;51.490;7.310;2023-03-05T00:18:54;9.55;;;1.60;;
53765;SDS011;39682;51.490;7.310;2023-03-05T00:21:22;11.00;;;1.55;;
53765;SDS011;39682;51.490;7.310;2023-03-05T00:23:49;7.15;;;1.70;;
53765;SDS011;39682;51.490;7.310;2023-03-05T00:26:19;12.45;;;3.88;;
53765;SDS011;39682;51.490;7.310;2023-03-05T00:28:45;12.68;;;2.20;;
53765;SDS011;39682;51.490;7.310;2023-03-05T00:31:16;7.25;;;1.50;;
53765;SDS011;39682;51.490;7.310;2023-03-05T00:33:42;5.13;;;1.77;;
53765;SDS011;39682;51.490;7.310;2023-03-05T00:36:08;8.23;;;1.90;;
53765;SDS011;39682;51.490;7.310;2023-03-05T00:38:34;9.90;;;2.88;;
53765;SDS011;39682;51.490;7.310;2023-03-05T00:41:00;12.15;;;2.50;;
53765;SDS011;39682;51.490;7.310;2023-03-05T00:43:27;14.00;;;3.55;;
53765;SDS011;39682;51.490;7.310;2023-03-05T00:45:53;9.35;;;1.92;;
53765;SDS011;39682;51.490;7.310;2023-03-05T00:48:18;8.00;;;3.63;;
53765;SDS011;39682;51.490;7.310;2023-03-05T00:50:46;12.40;;;2.80;;
53765;SDS011;39682;51.490;7.310;2023-03-05T00:53:12;16.48;;;3.08;;
53765;SDS011;39682;51.490;7.310;2023-03-05T00:55:38;7.97;;;2.75;;
53765;SDS011;39682;51.490;7.310;2023-03-05T00:58:04;7.85;;;3.03;;
53765;SDS011;39682;51.490;7.310;2023-03-05T01:00:30;8.23;;;2.45;;
53765;SDS011;39682;51.490;7.310;2023-03-05T01:02:56;6.40;;;1.65;;
53765;SDS011;39682;51.490;7.310;2023-03-05T01:05:22;6.13;;;1.45;;
53765;SDS011;39682;51.490;7.310;2023-03-05T01:07:51;11.68;;;3.20;;
53765;SDS011;39682;51.490;7.310;2023-03-05T01:10:17;11.20;;;3.30;;
53765;SDS011;39682;51.490;7.310;2023-03-05T01:12:43;9.15;;;2.53;;
53765;SDS011;39682;51.490;7.310;2023-03-05T01:15:09;7.10;;;2.70;;
53765;SDS011;39682;51.490;7.310;2023-03-05T01:17:35;11.82;;;2.67;;
53765;SDS011;39682;51.490;7.310;2023-03-05T01:20:01;8.85;;;2.42;;
53765;SDS011;39682;51.490;7.310;2023-03-05T01:22:27;6.55;;;3.00;;
53765;SDS011;39682;51.490;7.310;2023-03-05T01:24:53;9.95;;;2.70;;
53765;SDS011;39682;51.490;7.310;2023-03-05T01:27:19;7.30;;;1.90;;
53765;SDS011;39682;51.490;7.310;2023-03-05T01:29:45;10.98;;;2.92;;
53765;SDS011;39682;51.490;7.310;2023-03-05T01:32:11;11.13;;;4.65;;
53765;SDS011;39682;51.490;7.310;2023-03-05T01:34:37;8.43;;;2.92;;
53765;SDS011;39682;51.490;7.310;2023-03-05T01:37:05;5.35;;;2.00;;
53765;SDS011;39682;51.490;7.310;2023-03-05T01:39:31;6.55;;;2.35;;
53765;SDS011;39682;51.490;7.310;2023-03-05T01:41:57;10.45;;;1.92;;
53765;SDS011;39682;51.490;7.310;2023-03-05T01:44:27;8.27;;;2.35;;
53765;SDS011;39682;51.490;7.310;2023-03-05T01:46:53;8.77;;;2.78;;
53765;SDS011;39682;51.490;7.310;2023-03-05T01:49:21;8.10;;;2.65;;
53765;SDS011;39682;51.490;7.310;2023-03-05T01:52:21;7.95;;;1.83;;
53765;SDS011;39682;51.490;7.310;2023-03-05T01:54:55;10.60;;;3.65;;
53765;SDS011;39682;51.490;7.310;2023-03-05T01:57:24;8.23;;;2.00;;
53765;SDS011;39682;51.490;7.310;2023-03-05T01:59:52;8.98;;;3.17;;
53765;SDS011;39682;51.490;7.310;2023-03-05T02:02:20;11.90;;;2.47;;
53765;SDS011;39682;51.490;7.310;2023-03-05T02:04:50;6.22;;;2.45;;
53765;SDS011;39682;51.490;7.310;2023-03-05T02:07:18;7.05;;;2.90;;
53765;SDS011;39682;51.490;7.310;2023-03-05T02:09:44;8.05;;;2.60;;
53765;SDS011;39682;51.490;7.310;2023-03-05T02:12:10;15.32;;;3.67;;
53765;SDS011;39682;51.490;7.310;2023-03-05T02:14:37;9.50;;;2.55;;
53765;SDS011;39682;51.490;7.310;2023-03-05T02:17:04;9.13;;;3.05;;
53765;SDS011;39682;51.490;7.310;2023-03-05T02:19:44;7.55;;;2.40;;
53765;SDS011;39682;51.490;7.310;2023-03-05T02:22:15;8.18;;;2.28;;
53765;SDS011;39682;51.490;7.310;2023-03-05T02:24:41;9.52;;;2.35;;
53765;SDS011;39682;51.490;7.310;2023-03-05T02:27:07;7.88;;;3.05;;
53765;SDS011;39682;51.490;7.310;2023-03-05T02:29:33;11.85;;;2.78;;
53765;SDS011;39682;51.490;7.310;2023-03-05T02:32:02;12.07;;;2.63;;
53765;SDS011;39682;51.490;7.310;2023-03-05T02:34:28;5.53;;;1.70;;
53765;SDS011;39682;51.490;7.310;2023-03-05T02:36:54;4.88;;;1.70;;
53765;SDS011;39682;51.490;7.310;2023-03-05T02:39:20;8.63;;;2.00;;
53765;SDS011;39682;51.490;7.310;2023-03-05T02:41:47;5.13;;;1.70;;
53765;SDS011;39682;51.490;7.310;2023-03-05T02:44:13;7.40;;;1.70;;
53765;SDS011;39682;51.490;7.310;2023-03-05T02:46:39;6.75;;;1.27;;
53765;SDS011;39682;51.490;7.310;2023-03-05T02:49:05;5.93;;;1.20;;
53765;SDS011;39682;51.490;7.310;2023-03-05T02:51:31;4.28;;;1.52;;
53765;SDS011;39682;51.490;7.310;2023-03-05T02:53:57;7.55;;;1.80;;
53765;SDS011;39682;51.490;7.310;2023-03-05T02:56:23;5.70;;;1.50;;
53765;SDS011;39682;51.490;7.310;2023-03-05T02:58:49;3.85;;;1.55;;
53765;SDS011;39682;51.490;7.310;2023-03-05T03:01:14;2.80;;;0.98;;
53765;SDS011;39682;51.490;7.310;2023-03-05T03:03:40;5.22;;;1.10;;
53765;SDS011;39682;51.490;7.310;2023-03-05T03:06:06;6.03;;;1.42;;
53765;SDS011;39682;51.490;7.310;2023-03-05T03:08:32;4.18;;;1.55;;
53765;SDS011;39682;51.490;7.310;2023-03-05T03:11:08;4.70;;;1.42;;
53765;SDS011;39682;51.490;7.310;2023-03-05T03:13:36;3.65;;;1.00;;
53765;SDS011;39682;51.490;7.310;2023-03-05T03:16:03;6.28;;;1.40;;
53765;SDS011;39682;51.490;7.310;2023-03-05T03:18:29;5.38;;;1.00;;
53765;SDS011;39682;51.490;7.310;2023-03-05T03:20:55;3.75;;;2.03;;
53765;SDS011;39682;51.490;7.310;2023-03-05T03:23:21;8.60;;;1.38;;
53765;SDS011;39682;51.490;7.310;2023-03-05T03:25:47;4.53;;;2.38;;
53765;SDS011;39682;51.490;7.310;2023-03-05T03:28:22;4.60;;;1.33;;
53765;SDS011;39682;51.490;7.310;2023-03-05T03:33:14;7.75;;;1.40;;
53765;SDS011;39682;51.490;7.310;2023-03-05T03:35:42;5.03;;;1.58;;
53765;SDS011;39682;51.490;7.310;2023-03-05T03:38:08;8.82;;;1.90;;
53765;SDS011;39682;51.490;7.310;2023-03-05T03:40:35;5.50;;;3.00;;
53765;SDS011;39682;51.490;7.310;2023-03-05T03:43:01;6.72;;;2.28;;
53765;SDS011;39682;51.490;7.310;2023-03-05T03:45:27;9.98;;;2.83;;
53765;SDS011;39682;51.490;7.310;2023-03-05T03:47:53;7.28;;;2.67;;
53765;SDS011;39682;51.490;7.310;2023-03-05T03:50:19;5.18;;;2.08;;
53765;SDS011;39682;51.490;7.310;2023-03-05T03:52:48;8.90;;;2.40;;
53765;SDS011;39682;51.490;7.310;2023-03-05T03:55:14;7.95;;;2.35;;
53765;SDS011;39682;51.490;7.310;2023-03-05T03:57:40;7.60;;;2.55;;
53765;SDS011;39682;51.490;7.310;2023-03-05T04:00:08;5.25;;;2.20;;
53765;SDS011;39682;51.490;7.310;2023-03-05T04:02:35;8.55;;;2.15;;
53765;SDS011;39682;51.490;7.310;2023-03-05T04:05:01;6.55;;;2.17;;
53765;SDS011;39682;51.490;7.310;2023-03-05T04:07:27;8.30;;;2.63;;
53765;SDS011;39682;51.490;7.310;2023-03-05T04:09:53;8.55;;;2.58;;
53765;SDS011;39682;51.490;7.310;2023-03-05T04:12:19;13.00;;;2.72;;
53765;SDS011;39682;51.490;7.310;2023-03-05T04:14:46;10.13;;;2.10;;
53765;SDS011;39682;51.490;7.310;2023-03-05T04:17:12;12.73;;;2.30;;
53765;SDS011;39682;51.490;7.310;2023-03-05T04:19:39;8.82;;;2.38;;
53765;SDS011;39682;51.490;7.310;2023-03-05T04:22:06;8.70;;;2.50;;
53765;SDS011;39682;51.490;7.310;2023-03-05T04:24:32;10.68;;;3.30;;
53765;SDS011;39682;51.490;7.310;2023-03-05T04:26:58;6.95;;;2.75;;
53765;SDS011;39682;51.490;7.310;2023-03-05T04:29:24;13.63;;;3.55;;
53765;SDS011;39682;51.490;7.310;2023-03-05T04:31:50;4.88;;;1.92;;
53765;SDS011;39682;51.490;7.310;2023-03-05T04:34:16;7.45;;;3.33;;
53765;SDS011;39682;51.490;7.310;2023-03-05T04:36:42;11.32;;;3.55;;
53765;SDS011;39682;51.490;7.310;2023-03-05T04:39:08;10.35;;;3.47;;
53765;SDS011;39682;51.490;7.310;2023-03-05T04:41:34;9.38;;;4.05;;
53765;SDS011;39682;51.490;7.310;2023-03-05T04:44:00;7.50;;;4.18;;
53765;SDS011;39682;51.490;7.310;2023-03-05T04:46:26;8.60;;;3.95;;
53765;SDS011;39682;51.490;7.310;2023-03-05T04:48:52;9.85;;;5.03;;
53765;SDS011;39682;51.490;7.310;2023-03-05T04:51:18;9.10;;;2.55;;
53765;SDS011;39682;51.490;7.310;2023-03-05T04:53:44;10.27;;;4.28;;
53765;SDS011;39682;51.490;7.310;2023-03-05T04:56:10;9.50;;;4.10;;
53765;SDS011;39682;51.490;7.310;2023-03-05T04:58:36;11.88;;;3.92;;
53765;SDS011;39682;51.490;7.310;2023-03-05T05:01:03;11.10;;;3.85;;
53765;SDS011;39682;51.490;7.310;2023-03-05T05:03:29;13.10;;;4.15;;
53765;SDS011;39682;51.490;7.310;2023-03-05T05:05:56;8.40;;;4.38;;
53765;SDS011;39682;51.490;7.310;2023-03-05T05:08:22;8.98;;;2.85;;
53765;SDS011;39682;51.490;7.310;2023-03-05T05:11:04;9.55;;;3.88;;
53765;SDS011;39682;51.490;7.310;2023-03-05T05:13:31;10.30;;;3.28;;
53765;SDS011;39682;51.490;7.310;2023-03-05T05:15:57;7.18;;;3.05;;
53765;SDS011;39682;51.490;7.310;2023-03-05T05:18:23;12.88;;;3.60;;
53765;SDS011;39682;51.490;7.310;2023-03-05T05:20:49;5.90;;;3.42;;
53765;SDS011;39682;51.490;7.310;2023-03-05T05:23:16;9.88;;;3.15;;
53765;SDS011;39682;51.490;7.310;2023-03-05T05:25:42;6.90;;;2.65;;
53765;SDS011;39682;51.490;7.310;2023-03-05T05:28:08;7.32;;;2.13;;
53765;SDS011;39682;51.490;7.310;2023-03-05T05:30:35;7.50;;;1.67;;
53765;SDS011;39682;51.490;7.310;2023-03-05T05:33:01;3.60;;;1.40;;
53765;SDS011;39682;51.490;7.310;2023-03-05T05:35:26;7.28;;;1.50;;
53765;SDS011;39682;51.490;7.310;2023-03-05T05:37:53;6.85;;;2.17;;
53765;SDS011;39682;51.490;7.310;2023-03-05T05:40:19;5.95;;;2.03;;
53765;SDS011;39682;51.490;7.310;2023-03-05T05:42:45;7.18;;;1.85;;
53765;SDS011;39682;51.490;7.310;2023-03-05T05:45:11;7.10;;;2.22;;
53765;SDS011;39682;51.490;7.310;2023-03-05T05:47:37;6.03;;;2.75;;
53765;SDS011;39682;51.490;7.310;2023-03-05T05:50:03;6.35;;;2.75;;
53765;SDS011;39682;51.490;7.310;2023-03-05T05:52:29;6.68;;;2.47;;
53765;SDS011;39682;51.490;7.310;2023-03-05T05:54:56;11.23;;;3.50;;
53765;SDS011;39682;51.490;7.310;2023-03-05T05:57:21;8.27;;;2.53;;
53765;SDS011;39682;51.490;7.310;2023-03-05T05:59:48;8.65;;;2.60;;
53765;SDS011;39682;51.490;7.310;2023-03-05T06:02:14;11.85;;;3.20;;
53765;SDS011;39682;51.490;7.310;2023-03-05T06:04:40;9.15;;;3.55;;
53765;SDS011;39682;51.490;7.310;2023-03-05T06:07:07;9.30;;;3.50;;
53765;SDS011;39682;51.490;7.310;2023-03-05T06:09:36;9.65;;;3.00;;
53765;SDS011;39682;51.490;7.310;2023-03-05T06:12:02;14.82;;;4.75;;
53765;SDS011;39682;51.490;7.310;2023-03-05T06:14:28;11.20;;;5.30;;
53765;SDS011;39682;51.490;7.310;2023-03-05T06:16:54;14.23;;;5.95;;
53765;SDS011;39682;51.490;7.310;2023-03-05T06:19:20;13.55;;;5.90;;
53765;SDS011;39682;51.490;7.310;2023-03-05T06:21:46;15.73;;;5.25;;
53765;SDS011;39682;51.490;7.310;2023-03-05T06:24:12;12.85;;;4.95;;
53765;SDS011;39682;51.490;7.310;2023-03-05T06:26:38;22.33;;;6.13;;
53765;SDS011;39682;51.490;7.310;2023-03-05T06:29:04;11.65;;;3.63;;
53765;SDS011;39682;51.490;7.310;2023-03-05T06:31:30;16.05;;;4.60;;
53765;SDS011;39682;51.490;7.310;2023-03-05T06:33:57;16.85;;;4.60;;
53765;SDS011;39682;51.490;7.310;2023-03-05T06:36:25;14.13;;;5.13;;
53765;SDS011;39682;51.490;7.310;2023-03-05T06:38:51;13.15;;;5.40;;
53765;SDS011;39682;51.490;7.310;2023-03-05T06:41:19;18.23;;;6.40;;
53765;SDS011;39682;51.490;7.310;2023-03-05T06:43:46;12.02;;;5.07;;
53765;SDS011;39682;51.490;7.310;2023-03-05T06:46:13;14.05;;;6.13;;
53765;SDS011;39682;51.490;7.310;2023-03-05T06:48:40;14.10;;;5.00;;
53765;SDS011;39682;51.490;7.310;2023-03-05T06:51:14;14.95;;;4.65;;
53765;SDS011;39682;51.490;7.310;2023-03-05T06:53:41;15.48;;;5.57;;
53765;SDS011;39682;51.490;7.310;2023-03-05T06:56:07;10.95;;;5.30;;
53765;SDS011;39682;51.490;7.310;2023-03-05T06:58:33;19.60;;;7.55;;
53765;SDS011;39682;51.490;7.310;2023-03-05T07:00:59;12.88;;;4.85;;
53765;SDS011;39682;51.490;7.310;2023-03-05T07:03:25;15.68;;;5.32;;
53765;SDS011;39682;51.490;7.310;2023-03-05T07:05:51;14.27;;;4.82;;
53765;SDS011;39682;51.490;7.310;2023-03-05T07:08:17;16.40;;;4.72;;
53765;SDS011;39682;51.490;7.310;2023-03-05T07:10:43;18.95;;;4.50;;
53765;SDS011;39682;51.490;7.310;2023-03-05T07:13:09;16.52;;;3.97;;
53765;SDS011;39682;51.490;7.310;2023-03-05T07:15:38;14.93;;;4.65;;
53765;SDS011;39682;51.490;7.310;2023-03-05T07:18:05;13.60;;;4.68;;
53765;SDS011;39682;51.490;7.310;2023-03-05T07:20:35;11.80;;;3.65;;
53765;SDS011;39682;51.490;7.310;2023-03-05T07:23:01;8.88;;;3.63;;
53765;SDS011;39682;51.490;7.310;2023-03-05T07:25:27;12.65;;;3.33;;
53765;SDS011;39682;51.490;7.310;2023-03-05T07:27:53;16.25;;;4.00;;
53765;SDS011;39682;51.490;7.310;2023-03-05T07:30:19;10.75;;;4.40;;
53765;SDS011;39682;51.490;7.310;2023-03-05T07:32:45;12.80;;;4.85;;
53765;SDS011;39682;51.490;7.310;2023-03-05T07:35:11;11.75;;;4.45;;
53765;SDS011;39682;51.490;7.310;2023-03-05T07:37:37;9.40;;;3.28;;
53765;SDS011;39682;51.490;7.310;2023-03-05T07:40:03;12.23;;;4.72;;
53765;SDS011;39682;51.490;7.310;2023-03-05T07:42:30;14.63;;;4.25;;
53765;SDS011;39682;51.490;7.310;2023-03-05T07:44:56;22.38;;;5.03;;
53765;SDS011;39682;51.490;7.310;2023-03-05T07:47:22;17.05;;;5.75;;
53765;SDS011;39682;51.490;7.310;2023-03-05T07:49:49;12.18;;;5.10;;
53765;SDS011;39682;51.490;7.310;2023-03-05T07:52:15;11.13;;;2.97;;
53765;SDS011;39682;51.490;7.310;2023-03-05T07:54:41;12.90;;;4.95;;
53765;SDS011;39682;51.490;7.310;2023-03-05T07:57:08;16.55;;;6.18;;
53765;SDS011;39682;51.490;7.310;2023-03-05T07:59:36;5.82;;;3.63;;
53765;SDS011;39682;51.490;7.310;2023-03-05T08:02:02;7.78;;;3.03;;
53765;SDS011;39682;51.490;7.310;2023-03-05T08:04:28;8.18;;;4.28;;
53765;SDS011;39682;51.490;7.310;2023-03-05T08:06:55;8.98;;;3.63;;
53765;SDS011;39682;51.490;7.310;2023-03-05T08:09:21;9.68;;;4.05;;
53765;SDS011;39682;51.490;7.310;2023-03-05T08:11:47;10.07;;;5.18;;
53765;SDS011;39682;51.490;7.310;2023-03-05T08:14:13;11.48;;;5.53;;
53765;SDS011;39682;51.490;7.310;2023-03-05T08:16:40;12.05;;;4.55;;
53765;SDS011;39682;51.490;7.310;2023-03-05T08:19:06;11.40;;;5.30;;
53765;SDS011;39682;51.490;7.310;2023-03-05T08:21:33;17.63;;;5.80;;
53765;SDS011;39682;51.490;7.310;2023-03-05T08:24:01;13.88;;;5.20;;
53765;SDS011;39682;51.490;7.310;2023-03-05T08:26:28;10.13;;;2.92;;
53765;SDS011;39682;51.490;7.310;2023-03-05T08:28:54;5.93;;;2.00;;
53765;SDS011;39682;51.490;7.310;2023-03-05T08:31:20;8.00;;;3.22;;
53765;SDS011;39682;51.490;7.310;2023-03-05T08:33:47;7.30;;;3.90;;
53765;SDS011;39682;51.490;7.310;2023-03-05T08:36:13;10.90;;;4.28;;
53765;SDS011;39682;51.490;7.310;2023-03-05T08:38:39;8.45;;;4.40;;
53765;SDS011;39682;51.490;7.310;2023-03-05T08:41:06;9.73;;;4.18;;
53765;SDS011;39682;51.490;7.310;2023-03-05T08:43:32;10.63;;;4.97;;
53765;SDS011;39682;51.490;7.310;2023-03-05T08:45:59;12.55;;;5.75;;
53765;SDS011;39682;51.490;7.310;2023-03-05T08:48:25;10.15;;;6.65;;
53765;SDS011;39682;51.490;7.310;2023-03-05T08:50:51;8.57;;;4.25;;
53765;SDS011;39682;51.490;7.310;2023-03-05T08:53:18;11.40;;;4.47;;
53765;SDS011;39682;51.490;7.310;2023-03-05T08:55:52;9.55;;;5.65;;
53765;SDS011;39682;51.490;7.310;2023-03-05T08:58:18;9.40;;;5.05;;
53765;SDS011;39682;51.490;7.310;2023-03-05T09:00:44;12.73;;;6.38;;
53765;SDS011;39682;51.490;7.310;2023-03-05T09:03:10;12.73;;;5.93;;
53765;SDS011;39682;51.490;7.310;2023-03-05T09:05:36;10.93;;;6.53;;
53765;SDS011;39682;51.490;7.310;2023-03-05T09:08:02;11.95;;;6.35;;
53765;SDS011;39682;51.490;7.310;2023-03-05T09:10:28;11.13;;;5.53;;
53765;SDS011;39682;51.490;7.310;2023-03-05T09:12:54;15.32;;;6.53;;
53765;SDS011;39682;51.490;7.310;2023-03-05T09:15:20;8.27;;;4.65;;
53765;SDS011;39682;51.490;7.310;2023-03-05T09:17:46;18.17;;;7.45;;
53765;SDS011;39682;51.490;7.310;2023-03-05T09:20:12;10.75;;;6.22;;
53765;SDS011;39682;51.490;7.310;2023-03-05T09:22:38;15.43;;;8.00;;
53765;SDS011;39682;51.490;7.310;2023-03-05T09:25:05;8.02;;;4.70;;
53765;SDS011;39682;51.490;7.310;2023-03-05T09:27:32;14.15;;;7.35;;
53765;SDS011;39682;51.490;7.310;2023-03-05T09:29:58;12.90;;;6.70;;
53765;SDS011;39682;51.490;7.310;2023-03-05T09:32:24;12.55;;;7.93;;
53765;SDS011;39682;51.490;7.310;2023-03-05T09:34:50;16.33;;;8.90;;
53765;SDS011;39682;51.490;7.310;2023-03-05T09:37:16;9.88;;;5.22;;
53765;SDS011;39682;51.490;7.310;2023-03-05T09:39:42;10.45;;;6.53;;
53765;SDS011;39682;51.490;7.310;2023-03-05T09:42:13;8.48;;;5.00;;
53765;SDS011;39682;51.490;7.310;2023-03-05T09:44:46;9.30;;;6.23;;
53765;SDS011;39682;51.490;7.310;2023-03-05T09:49:44;15.18;;;8.45;;
53765;SDS011;39682;51.490;7.310;2023-03-05T09:52:17;15.23;;;7.60;;
53765;SDS011;39682;51.490;7.310;2023-03-05T09:54:44;16.10;;;10.30;;
53765;SDS011;39682;51.490;7.310;2023-03-05T09:57:16;24.38;;;13.98;;
53765;SDS011;39682;51.490;7.310;2023-03-05T09:59:48;18.88;;;11.32;;
53765;SDS011;39682;51.490;7.310;2023-03-05T10:02:29;21.27;;;11.63;;
53765;SDS011;39682;51.490;7.310;2023-03-05T10:05:02;20.08;;;11.93;;
53765;SDS011;39682;51.490;7.310;2023-03-05T10:07:32;20.02;;;11.68;;
53765;SDS011;39682;51.490;7.310;2023-03-05T10:10:00;28.60;;;10.73;;
53765;SDS011;39682;51.490;7.310;2023-03-05T10:12:43;22.38;;;12.63;;
53765;SDS011;39682;51.490;7.310;2023-03-05T10:15:13;23.10;;;11.27;;
53765;SDS011;39682;51.490;7.310;2023-03-05T10:22:57;21.42;;;11.18;;
53765;SDS011;39682;51.490;7.310;2023-03-05T10:28:04;23.30;;;12.25;;
53765;SDS011;39682;51.490;7.310;2023-03-05T10:33:24;16.05;;;9.88;;
53765;SDS011;39682;51.490;7.310;2023-03-05T10:36:07;13.63;;;8.23;;
53765;SDS011;39682;51.490;7.310;2023-03-05T10:41:22;19.40;;;10.02;;
53765;SDS011;39682;51.490;7.310;2023-03-05T10:46:16;16.65;;;9.77;;
53765;SDS011;39682;51.490;7.310;2023-03-05T10:48:48;18.45;;;10.82;;
53765;SDS011;39682;51.490;7.310;2023-03-05T10:51:16;17.67;;;9.00;;
53765;SDS011;39682;51.490;7.310;2023-03-05T10:56:12;15.75;;;9.05;;
53765;SDS011;39682;51.490;7.310;2023-03-05T10:58:39;19.80;;;9.65;;
53765;SDS011;39682;51.490;7.310;2023-03-05T11:01:17;14.38;;;7.53;;
53765;SDS011;39682;51.490;7.310;2023-03-05T11:06:14;14.23;;;6.35;;
53765;SDS011;39682;51.490;7.310;2023-03-05T11:08:47;8.00;;;4.53;;
53765;SDS011;39682;51.490;7.310;2023-03-05T11:11:15;10.65;;;6.25;;
53765;SDS011;39682;51.490;7.310;2023-03-05T11:14:01;13.32;;;6.93;;
53765;SDS011;39682;51.490;7.310;2023-03-05T11:16:31;7.72;;;4.80;;
53765;SDS011;39682;51.490;7.310;2023-03-05T11:21:42;12.83;;;5.87;;
53765;SDS011;39682;51.490;7.310;2023-03-05T11:26:35;10.35;;;6.25;;
53765;SDS011;39682;51.490;7.310;2023-03-05T11:29:01;12.18;;;7.55;;
53765;SDS011;39682;51.490;7.310;2023-03-05T11:31:29;12.77;;;7.18;;
53765;SDS011;39682;51.490;7.310;2023-03-05T11:36:40;6.73;;;2.97;;
53765;SDS011;39682;51.490;7.310;2023-03-05T11:41:43;11.70;;;5.55;;
53765;SDS011;39682;51.490;7.310;2023-03-05T11:44:13;11.55;;;4.80;;
53765;SDS011;39682;51.490;7.310;2023-03-05T11:46:42;9.80;;;5.40;;
53765;SDS011;39682;51.490;7.310;2023-03-05T11:49:10;7.35;;;4.53;;
53765;SDS011;39682;51.490;7.310;2023-03-05T11:51:40;7.10;;;4.82;;
53765;SDS011;39682;51.490;7.310;2023-03-05T11:54:11;10.05;;;5.18;;
53765;SDS011;39682;51.490;7.310;2023-03-05T11:56:40;9.82;;;4.82;;
53765;SDS011;39682;51.490;7.310;2023-03-05T11:59:12;9.82;;;5.72;;
53765;SDS011;39682;51.490;7.310;2023-03-05T12:01:41;10.98;;;7.22;;
53765;SDS011;39682;51.490;7.310;2023-03-05T12:04:07;8.82;;;6.60;;
53765;SDS011;39682;51.490;7.310;2023-03-05T12:11:38;8.32;;;6.40;;
53765;SDS011;39682;51.490;7.310;2023-03-05T12:14:05;11.65;;;7.25;;
53765;SDS011;39682;51.490;7.310;2023-03-05T12:16:37;12.00;;;6.53;;
53765;SDS011;39682;51.490;7.310;2023-03-05T12:21:50;7.93;;;4.57;;
53765;SDS011;39682;51.490;7.310;2023-03-05T12:29:39;7.25;;;4.43;;
53765;SDS011;39682;51.490;7.310;2023-03-05T12:34:56;9.43;;;4.82;;
53765;SDS011;39682;51.490;7.310;2023-03-05T12:52:54;5.47;;;3.45;;
53765;SDS011;39682;51.490;7.310;2023-03-05T12:57:56;7.90;;;5.10;;
53765;SDS011;39682;51.490;7.310;2023-03-05T13:00:24;6.63;;;4.57;;
53765;SDS011;39682;51.490;7.310;2023-03-05T13:02:53;7.45;;;4.28;;
53765;SDS011;39682;51.490;7.310;2023-03-05T13:05:29;7.13;;;4.70;;
53765;SDS011;39682;51.490;7.310;2023-03-05T13:11:03;4.88;;;4.00;;
53765;SDS011;39682;51.490;7.310;2023-03-05T13:13:37;5.90;;;3.53;;
53765;SDS011;39682;51.490;7.310;2023-03-05T13:16:14;4.18;;;3.28;;
53765;SDS011;39682;51.490;7.310;2023-03-05T13:18:41;6.07;;;3.88;;
53765;SDS011;39682;51.490;7.310;2023-03-05T13:21:14;4.55;;;2.90;;
53765;SDS011;39682;51.490;7.310;2023-03-05T13:23:59;7.50;;;3.58;;
53765;SDS011;39682;51.490;7.310;2023-03-05T13:26:36;6.22;;;3.70;;
53765;SDS011;39682;51.490;7.310;2023-03-05T13:29:10;4.95;;;3.63;;
53765;SDS011;39682;51.490;7.310;2023-03-05T13:31:56;8.43;;;3.92;;
53765;SDS011;39682;51.490;7.310;2023-03-05T13:36:59;5.22;;;3.53;;
53765;SDS011;39682;51.490;7.310;2023-03-05T13:39:27;6.00;;;3.25;;
53765;SDS011;39682;51.490;7.310;2023-03-05T13:42:04;5.22;;;3.38;;
53765;SDS011;39682;51.490;7.310;2023-03-05T13:44:31;4.93;;;3.10;;
53765;SDS011;39682;51.490;7.310;2023-03-05T13:49:32;5.78;;;3.70;;
53765;SDS011;39682;51.490;7.310;2023-03-05T13:51:58;7.10;;;3.90;;
53765;SDS011;39682;51.490;7.310;2023-03-05T13:54:25;4.70;;;3.90;;
53765;SDS011;39682;51.490;7.310;2023-03-05T13:56:53;4.35;;;3.30;;
53765;SDS011;39682;51.490;7.310;2023-03-05T13:59:23;7.57;;;3.08;;
53765;SDS011;39682;51.490;7.310;2023-03-05T14:01:49;8.20;;;3.25;;
53765;SDS011;39682;51.490;7.310;2023-03-05T14:04:23;6.20;;;3.55;;
53765;SDS011;39682;51.490;7.310;2023-03-05T14:09:17;5.28;;;3.10;;
53765;SDS011;39682;51.490;7.310;2023-03-05T14:11:57;5.18;;;3.35;;
53765;SDS011;39682;51.490;7.310;2023-03-05T14:14:24;5.75;;;3.10;;
53765;SDS011;39682;51.490;7.310;2023-03-05T14:16:50;3.63;;;2.92;;
53765;SDS011;39682;51.490;7.310;2023-03-05T14:21:55;4.68;;;3.00;;
53765;SDS011;39682;51.490;7.310;2023-03-05T14:24:23;6.72;;;2.85;;
53765;SDS011;39682;51.490;7.310;2023-03-05T14:26:51;3.95;;;3.05;;
53765;SDS011;39682;51.490;7.310;2023-03-05T14:29:20;3.47;;;2.42;;
53765;SDS011;39682;51.490;7.310;2023-03-05T14:34:25;2.42;;;1.55;;
53765;SDS011;39682;51.490;7.310;2023-03-05T14:36:52;4.53;;;2.22;;
53765;SDS011;39682;51.490;7.310;2023-03-05T14:39:29;3.78;;;2.22;;
53765;SDS011;39682;51.490;7.310;2023-03-05T14:42:11;4.45;;;1.92;;
53765;SDS011;39682;51.490;7.310;2023-03-05T14:44:37;4.43;;;2.88;;
53765;SDS011;39682;51.490;7.310;2023-03-05T14:47:04;3.65;;;2.42;;
53765;SDS011;39682;51.490;7.310;2023-03-05T14:49:31;2.75;;;1.80;;
53765;SDS011;39682;51.490;7.310;2023-03-05T14:51:56;3.55;;;1.58;;
53765;SDS011;39682;51.490;7.310;2023-03-05T14:54:24;2.78;;;1.85;;
53765;SDS011;39682;51.490;7.310;2023-03-05T14:56:50;5.82;;;2.97;;
53765;SDS011;39682;51.490;7.310;2023-03-05T14:59:17;7.78;;;3.20;;
53765;SDS011;39682;51.490;7.310;2023-03-05T15:01:44;9.02;;;3.83;;
53765;SDS011;39682;51.490;7.310;2023-03-05T15:04:10;19.55;;;5.38;;
53765;SDS011;39682;51.490;7.310;2023-03-05T15:06:39;34.85;;;9.93;;
53765;SDS011;39682;51.490;7.310;2023-03-05T15:09:09;8.80;;;2.88;;
53765;SDS011;39682;51.490;7.310;2023-03-05T15:11:35;8.77;;;4.28;;
53765;SDS011;39682;51.490;7.310;2023-03-05T15:14:01;10.80;;;5.53;;
53765;SDS011;39682;51.490;7.310;2023-03-05T15:16:27;14.85;;;7.22;;
53765;SDS011;39682;51.490;7.310;2023-03-05T15:18:53;15.32;;;8.60;;
53765;SDS011;39682;51.490;7.310;2023-03-05T15:21:19;17.95;;;9.05;;
53765;SDS011;39682;51.490;7.310;2023-03-05T15:23:45;18.42;;;8.82;;
53765;SDS011;39682;51.490;7.310;2023-03-05T15:26:12;16.42;;;10.05;;
53765;SDS011;39682;51.490;7.310;2023-03-05T15:28:38;10.68;;;5.50;;
53765;SDS011;39682;51.490;7.310;2023-03-05T15:31:05;14.82;;;7.88;;
53765;SDS011;39682;51.490;7.310;2023-03-05T15:33:31;10.90;;;5.53;;
53765;SDS011;39682;51.490;7.310;2023-03-05T15:35:57;10.90;;;5.70;;
53765;SDS011;39682;51.490;7.310;2023-03-05T15:38:24;10.45;;;6.15;;
53765;SDS011;39682;51.490;7.310;2023-03-05T15:40:50;7.63;;;4.47;;
53765;SDS011;39682;51.490;7.310;2023-03-05T15:43:17;7.05;;;4.25;;
53765;SDS011;39682;51.490;7.310;2023-03-05T15:45:43;8.73;;;5.40;;
53765;SDS011;39682;51.490;7.310;2023-03-05T15:48:09;6.43;;;3.40;;
53765;SDS011;39682;51.490;7.310;2023-03-05T15:50:35;7.22;;;4.25;;
53765;SDS011;39682;51.490;7.310;2023-03-05T15:53:03;7.22;;;4.63;;
53765;SDS011;39682;51.490;7.310;2023-03-05T15:55:29;8.43;;;4.30;;
53765;SDS011;39682;51.490;7.310;2023-03-05T15:57:55;7.93;;;4.57;;
53765;SDS011;39682;51.490;7.310;2023-03-05T16:00:25;7.15;;;4.60;;
53765;SDS011;39682;51.490;7.310;2023-03-05T16:02:53;8.73;;;5.15;;
53765;SDS011;39682;51.490;7.310;2023-03-05T16:05:19;7.07;;;4.15;;
53765;SDS011;39682;51.490;7.310;2023-03-05T16:07:45;10.68;;;5.70;;
53765;SDS011;39682;51.490;7.310;2023-03-05T16:10:14;9.38;;;5.68;;